sensor_id;sensor_type;location;lat;lon;timestamp;temperature;humidity
14097;DHT22;7125;48.106;11.544;2022-11-20T00:01:29;5.20;99.90
14097;DHT22;7125;48.106;11.544;2022-11-20T00:03:57;5.30;99.90
14097;DHT22;7125;48.106;11.544;2022-11-20T00:06:25;5.30;99.90
14097;DHT22;7125;48.106;11.544;2022-11-20T00:08:54;5.30;99.90
14097;DHT22;7125;48.106;11.544;2022-11-20T00:11:24;5.40;99.90
14097;DHT22;7125;48.106;11.544;2022-11-20T00:13:53;5.40;99.90
14097;DHT22;7125;48.106;11.544;2022-11-20T00:16:22;5.40;99.90
14097;DHT22;7125;48.106;11.544;2022-11-20T00:18:49;5.40;99.90
14097;DHT22;7125;48.106;11.544;2022-11-20T00:21:18;5.40;99.90
14097;DHT22;7125;48.106;11.544;2022-11-20T00:23:46;5.40;99.90
14097;DHT22;7125;48.106;11.544;2022-11-20T00:26:15;5.40;99.90
14097;DHT22;7125;48.106;11.544;2022-11-20T00:28:48;5.40;99.90
14097;DHT22;7125;48.106;11.544;2022-11-20T00:31:15;5.40;99.90
14097;DHT22;7125;48.106;11.544;2022-11-20T00:33:43;5.50;99.90
14097;DHT22;7125;48.106;11.544;2022-11-20T00:36:12;5.40;99.90
14097;DHT22;7125;48.106;11.544;2022-11-20T00:38:39;5.50;99.90
14097;DHT22;7125;48.106;11.544;2022-11-20T00:41:08;5.50;99.90
14097;DHT22;7125;48.106;11.544;2022-11-20T00:43:35;5.50;99.90
14097;DHT22;7125;48.106;11.544;2022-11-20T00:46:07;5.50;99.90
14097;DHT22;7125;48.106;11.544;2022-11-20T00:48:34;5.50;99.90
14097;DHT22;7125;48.106;11.544;2022-11-20T00:51:02;5.60;99.90
14097;DHT22;7125;48.106;11.544;2022-11-20T00:53:31;5.50;99.90
14097;DHT22;7125;48.106;11.544;2022-11-20T00:56:00;5.60;99.90
14097;DHT22;7125;48.106;11.544;2022-11-20T00:58:30;5.50;99.90
14097;DHT22;7125;48.106;11.544;2022-11-20T01:01:00;5.60;99.90
14097;DHT22;7125;48.106;11.544;2022-11-20T01:03:31;5.60;99.90
14097;DHT22;7125;48.106;11.544;2022-11-20T01:06:00;5.60;99.90
14097;DHT22;7125;48.106;11.544;2022-11-20T01:08:30;5.60;99.90
14097;DHT22;7125;48.106;11.544;2022-11-20T01:10:59;5.60;99.90
14097;DHT22;7125;48.106;11.544;2022-11-20T01:13:26;5.60;99.90
14097;DHT22;7125;48.106;11.544;2022-11-20T01:16:07;5.60;99.90
14097;DHT22;7125;48.106;11.544;2022-11-20T01:18:38;5.60;99.90
14097;DHT22;7125;48.106;11.544;2022-11-20T01:21:08;5.60;99.90
14097;DHT22;7125;48.106;11.544;2022-11-20T01:23:37;5.60;99.90
14097;DHT22;7125;48.106;11.544;2022-11-20T01:26:07;5.60;99.90
14097;DHT22;7125;48.106;11.544;2022-11-20T01:28:35;5.60;99.90
14097;DHT22;7125;48.106;11.544;2022-11-20T01:31:11;5.60;99.90
14097;DHT22;7125;48.106;11.544;2022-11-20T01:33:40;5.60;99.90
14097;DHT22;7125;48.106;11.544;2022-11-20T01:36:08;5.60;99.90
14097;DHT22;7125;48.106;11.544;2022-11-20T01:38:35;5.60;99.90
14097;DHT22;7125;48.106;11.544;2022-11-20T01:41:03;5.60;99.90
14097;DHT22;7125;48.106;11.544;2022-11-20T01:43:30;5.60;99.90
14097;DHT22;7125;48.106;11.544;2022-11-20T01:46:14;5.70;99.90
14097;DHT22;7125;48.106;11.544;2022-11-20T01:48:49;5.70;99.90
14097;DHT22;7125;48.106;11.544;2022-11-20T01:51:21;5.60;99.90
14097;DHT22;7125;48.106;11.544;2022-11-20T01:53:52;5.60;99.90
14097;DHT22;7125;48.106;11.544;2022-11-20T01:56:21;5.60;99.90
14097;DHT22;7125;48.106;11.544;2022-11-20T01:58:52;5.60;99.90
14097;DHT22;7125;48.106;11.544;2022-11-20T02:01:20;5.60;99.90
14097;DHT22;7125;48.106;11.544;2022-11-20T02:03:50;5.60;99.90
14097;DHT22;7125;48.106;11.544;2022-11-20T02:06:22;5.60;99.90
14097;DHT22;7125;48.106;11.544;2022-11-20T02:08:51;5.60;99.90
14097;DHT22;7125;48.106;11.544;2022-11-20T02:11:18;5.60;99.90
14097;DHT22;7125;48.106;11.544;2022-11-20T02:13:45;5.60;99.90
14097;DHT22;7125;48.106;11.544;2022-11-20T02:16:14;5.60;99.90
14097;DHT22;7125;48.106;11.544;2022-11-20T02:18:42;5.50;99.90
14097;DHT22;7125;48.106;11.544;2022-11-20T02:21:17;5.50;99.90
14097;DHT22;7125;48.106;11.544;2022-11-20T02:24:03;5.50;99.90
14097;DHT22;7125;48.106;11.544;2022-11-20T02:26:33;5.50;99.90
14097;DHT22;7125;48.106;11.544;2022-11-20T02:29:02;5.50;99.90
14097;DHT22;7125;48.106;11.544;2022-11-20T02:31:37;5.50;99.90
14097;DHT22;7125;48.106;11.544;2022-11-20T02:34:04;5.50;99.90
14097;DHT22;7125;48.106;11.544;2022-11-20T02:36:32;5.50;99.90
14097;DHT22;7125;48.106;11.544;2022-11-20T02:39:02;5.50;99.90
14097;DHT22;7125;48.106;11.544;2022-11-20T02:41:34;5.50;99.90
14097;DHT22;7125;48.106;11.544;2022-11-20T02:44:01;5.50;99.90
14097;DHT22;7125;48.106;11.544;2022-11-20T02:46:28;5.40;99.90
14097;DHT22;7125;48.106;11.544;2022-11-20T02:48:56;5.50;99.90
14097;DHT22;7125;48.106;11.544;2022-11-20T02:51:23;5.40;99.90
14097;DHT22;7125;48.106;11.544;2022-11-20T02:53:50;5.50;99.90
14097;DHT22;7125;48.106;11.544;2022-11-20T02:56:18;5.50;99.90
14097;DHT22;7125;48.106;11.544;2022-11-20T02:58:45;5.40;99.90
14097;DHT22;7125;48.106;11.544;2022-11-20T03:01:12;5.50;99.90
14097;DHT22;7125;48.106;11.544;2022-11-20T03:03:39;5.40;99.90
14097;DHT22;7125;48.106;11.544;2022-11-20T03:06:07;5.40;99.90
14097;DHT22;7125;48.106;11.544;2022-11-20T03:08:34;5.40;99.90
14097;DHT22;7125;48.106;11.544;2022-11-20T03:11:05;5.40;99.90
14097;DHT22;7125;48.106;11.544;2022-11-20T03:13:34;5.50;99.90
14097;DHT22;7125;48.106;11.544;2022-11-20T03:16:07;5.50;99.90
14097;DHT22;7125;48.106;11.544;2022-11-20T03:18:34;5.50;99.90
14097;DHT22;7125;48.106;11.544;2022-11-20T03:21:02;5.50;99.90
14097;DHT22;7125;48.106;11.544;2022-11-20T03:23:29;5.50;99.90
14097;DHT22;7125;48.106;11.544;2022-11-20T03:26:08;5.50;99.90
14097;DHT22;7125;48.106;11.544;2022-11-20T03:28:36;5.50;99.90
14097;DHT22;7125;48.106;11.544;2022-11-20T03:31:10;5.50;99.90
14097;DHT22;7125;48.106;11.544;2022-11-20T03:33:39;5.50;99.90
14097;DHT22;7125;48.106;11.544;2022-11-20T03:36:09;5.60;99.90
14097;DHT22;7125;48.106;11.544;2022-11-20T03:38:38;5.50;99.90
14097;DHT22;7125;48.106;11.544;2022-11-20T03:41:07;5.50;99.90
14097;DHT22;7125;48.106;11.544;2022-11-20T03:43:37;5.50;99.90
14097;DHT22;7125;48.106;11.544;2022-11-20T03:46:05;5.50;99.90
14097;DHT22;7125;48.106;11.544;2022-11-20T03:48:34;5.50;99.90
14097;DHT22;7125;48.106;11.544;2022-11-20T03:51:09;5.50;99.90
14097;DHT22;7125;48.106;11.544;2022-11-20T03:53:36;5.50;99.90
14097;DHT22;7125;48.106;11.544;2022-11-20T03:56:04;5.50;99.90
14097;DHT22;7125;48.106;11.544;2022-11-20T03:58:32;5.50;99.90
14097;DHT22;7125;48.106;11.544;2022-11-20T04:01:06;5.50;99.90
14097;DHT22;7125;48.106;11.544;2022-11-20T04:03:34;5.50;99.90
14097;DHT22;7125;48.106;11.544;2022-11-20T04:06:05;5.50;99.90
14097;DHT22;7125;48.106;11.544;2022-11-20T04:08:32;5.50;99.90
14097;DHT22;7125;48.106;11.544;2022-11-20T04:11:09;5.50;99.90
14097;DHT22;7125;48.106;11.544;2022-11-20T04:13:36;5.50;99.90
14097;DHT22;7125;48.106;11.544;2022-11-20T04:16:06;5.50;99.90
14097;DHT22;7125;48.106;11.544;2022-11-20T04:18:33;5.50;99.90
14097;DHT22;7125;48.106;11.544;2022-11-20T04:21:00;5.50;99.90
14097;DHT22;7125;48.106;11.544;2022-11-20T04:23:28;5.40;99.90
14097;DHT22;7125;48.106;11.544;2022-11-20T04:26:00;5.40;99.90
14097;DHT22;7125;48.106;11.544;2022-11-20T04:28:26;5.40;99.90
14097;DHT22;7125;48.106;11.544;2022-11-20T04:30:53;5.50;99.90
14097;DHT22;7125;48.106;11.544;2022-11-20T04:33:22;5.40;99.90
14097;DHT22;7125;48.106;11.544;2022-11-20T04:35:49;5.40;99.90
14097;DHT22;7125;48.106;11.544;2022-11-20T04:38:15;5.40;99.90
14097;DHT22;7125;48.106;11.544;2022-11-20T04:40:43;5.40;99.90
14097;DHT22;7125;48.106;11.544;2022-11-20T04:43:10;5.40;99.90
14097;DHT22;7125;48.106;11.544;2022-11-20T04:45:36;5.40;99.90
14097;DHT22;7125;48.106;11.544;2022-11-20T04:48:04;5.40;99.90
14097;DHT22;7125;48.106;11.544;2022-11-20T04:50:33;5.30;99.90
14097;DHT22;7125;48.106;11.544;2022-11-20T04:53:00;5.30;99.90
14097;DHT22;7125;48.106;11.544;2022-11-20T04:55:27;5.40;99.90
14097;DHT22;7125;48.106;11.544;2022-11-20T04:57:54;5.40;99.90
14097;DHT22;7125;48.106;11.544;2022-11-20T05:00:22;5.40;99.90
14097;DHT22;7125;48.106;11.544;2022-11-20T05:02:49;5.40;99.90
14097;DHT22;7125;48.106;11.544;2022-11-20T05:05:16;5.40;99.90
14097;DHT22;7125;48.106;11.544;2022-11-20T05:07:44;5.40;99.90
14097;DHT22;7125;48.106;11.544;2022-11-20T05:10:11;5.40;99.90
14097;DHT22;7125;48.106;11.544;2022-11-20T05:12:38;5.40;99.90
14097;DHT22;7125;48.106;11.544;2022-11-20T05:15:05;5.50;99.90
14097;DHT22;7125;48.106;11.544;2022-11-20T05:17:32;5.50;99.90
14097;DHT22;7125;48.106;11.544;2022-11-20T05:19:59;5.50;99.90
14097;DHT22;7125;48.106;11.544;2022-11-20T05:22:27;5.50;99.90
14097;DHT22;7125;48.106;11.544;2022-11-20T05:24:55;5.50;99.90
14097;DHT22;7125;48.106;11.544;2022-11-20T05:27:23;5.50;99.90
14097;DHT22;7125;48.106;11.544;2022-11-20T05:29:49;5.50;99.90
14097;DHT22;7125;48.106;11.544;2022-11-20T05:32:16;5.40;99.90
14097;DHT22;7125;48.106;11.544;2022-11-20T05:34:43;5.40;99.90
14097;DHT22;7125;48.106;11.544;2022-11-20T05:37:10;5.40;99.90
14097;DHT22;7125;48.106;11.544;2022-11-20T05:39:37;5.30;99.90
14097;DHT22;7125;48.106;11.544;2022-11-20T05:42:05;5.30;99.90
14097;DHT22;7125;48.106;11.544;2022-11-20T05:44:49;5.30;99.90
14097;DHT22;7125;48.106;11.544;2022-11-20T05:47:17;5.30;99.90
14097;DHT22;7125;48.106;11.544;2022-11-20T05:49:44;5.40;99.90
14097;DHT22;7125;48.106;11.544;2022-11-20T05:52:11;5.40;99.90
14097;DHT22;7125;48.106;11.544;2022-11-20T05:54:38;5.40;99.90
14097;DHT22;7125;48.106;11.544;2022-11-20T05:57:07;5.30;99.90
14097;DHT22;7125;48.106;11.544;2022-11-20T05:59:34;5.30;99.90
14097;DHT22;7125;48.106;11.544;2022-11-20T06:02:01;5.30;99.90
14097;DHT22;7125;48.106;11.544;2022-11-20T06:04:28;5.30;99.90
14097;DHT22;7125;48.106;11.544;2022-11-20T06:06:55;5.30;99.90
14097;DHT22;7125;48.106;11.544;2022-11-20T06:09:21;5.30;99.90
14097;DHT22;7125;48.106;11.544;2022-11-20T06:11:48;5.30;99.90
14097;DHT22;7125;48.106;11.544;2022-11-20T06:14:17;5.30;99.90
14097;DHT22;7125;48.106;11.544;2022-11-20T06:16:43;5.30;99.90
14097;DHT22;7125;48.106;11.544;2022-11-20T06:19:10;5.20;99.90
14097;DHT22;7125;48.106;11.544;2022-11-20T06:21:38;5.20;99.90
14097;DHT22;7125;48.106;11.544;2022-11-20T06:24:08;5.10;99.90
14097;DHT22;7125;48.106;11.544;2022-11-20T06:26:35;5.00;99.90
14097;DHT22;7125;48.106;11.544;2022-11-20T06:29:02;5.00;99.90
14097;DHT22;7125;48.106;11.544;2022-11-20T06:31:30;4.90;99.90
14097;DHT22;7125;48.106;11.544;2022-11-20T06:34:00;4.90;99.90
14097;DHT22;7125;48.106;11.544;2022-11-20T06:36:27;4.80;99.90
14097;DHT22;7125;48.106;11.544;2022-11-20T06:38:55;4.70;99.90
14097;DHT22;7125;48.106;11.544;2022-11-20T06:41:23;4.70;99.90
14097;DHT22;7125;48.106;11.544;2022-11-20T06:43:50;4.70;99.90
14097;DHT22;7125;48.106;11.544;2022-11-20T06:46:19;4.70;99.90
14097;DHT22;7125;48.106;11.544;2022-11-20T06:48:48;4.70;99.90
14097;DHT22;7125;48.106;11.544;2022-11-20T06:51:16;4.70;99.90
14097;DHT22;7125;48.106;11.544;2022-11-20T06:53:43;4.70;99.90
14097;DHT22;7125;48.106;11.544;2022-11-20T06:56:10;4.70;99.90
14097;DHT22;7125;48.106;11.544;2022-11-20T06:58:37;4.80;99.90
14097;DHT22;7125;48.106;11.544;2022-11-20T07:01:06;4.80;99.90
14097;DHT22;7125;48.106;11.544;2022-11-20T07:03:34;4.90;99.90
14097;DHT22;7125;48.106;11.544;2022-11-20T07:06:04;5.00;99.90
14097;DHT22;7125;48.106;11.544;2022-11-20T07:08:31;5.10;99.90
14097;DHT22;7125;48.106;11.544;2022-11-20T07:11:00;5.10;99.90
14097;DHT22;7125;48.106;11.544;2022-11-20T07:13:27;5.20;99.90
14097;DHT22;7125;48.106;11.544;2022-11-20T07:15:58;5.30;99.90
14097;DHT22;7125;48.106;11.544;2022-11-20T07:18:26;5.30;99.90
14097;DHT22;7125;48.106;11.544;2022-11-20T07:20:54;5.40;99.90
14097;DHT22;7125;48.106;11.544;2022-11-20T07:23:22;5.40;99.90
14097;DHT22;7125;48.106;11.544;2022-11-20T07:25:49;5.50;99.90
14097;DHT22;7125;48.106;11.544;2022-11-20T07:28:16;5.50;99.90
14097;DHT22;7125;48.106;11.544;2022-11-20T07:30:50;5.50;99.90
14097;DHT22;7125;48.106;11.544;2022-11-20T07:33:17;5.50;99.90
14097;DHT22;7125;48.106;11.544;2022-11-20T07:35:43;5.60;99.90
14097;DHT22;7125;48.106;11.544;2022-11-20T07:38:11;5.60;99.90
14097;DHT22;7125;48.106;11.544;2022-11-20T07:40:40;5.60;99.90
14097;DHT22;7125;48.106;11.544;2022-11-20T07:43:07;5.70;99.90
14097;DHT22;7125;48.106;11.544;2022-11-20T07:45:34;5.70;99.90
14097;DHT22;7125;48.106;11.544;2022-11-20T07:48:02;5.70;99.90
14097;DHT22;7125;48.106;11.544;2022-11-20T07:50:29;5.70;99.90
14097;DHT22;7125;48.106;11.544;2022-11-20T07:53:01;5.70;99.90
14097;DHT22;7125;48.106;11.544;2022-11-20T07:55:29;5.70;99.90
14097;DHT22;7125;48.106;11.544;2022-11-20T07:57:57;5.80;99.90
14097;DHT22;7125;48.106;11.544;2022-11-20T08:00:25;5.80;99.90
14097;DHT22;7125;48.106;11.544;2022-11-20T08:02:53;5.80;99.90
14097;DHT22;7125;48.106;11.544;2022-11-20T08:05:19;5.80;99.90
14097;DHT22;7125;48.106;11.544;2022-11-20T08:07:47;5.80;99.90
14097;DHT22;7125;48.106;11.544;2022-11-20T08:10:15;5.90;99.90
14097;DHT22;7125;48.106;11.544;2022-11-20T08:12:46;5.90;99.90
14097;DHT22;7125;48.106;11.544;2022-11-20T08:15:32;6.00;99.90
14097;DHT22;7125;48.106;11.544;2022-11-20T08:18:01;6.00;99.90
14097;DHT22;7125;48.106;11.544;2022-11-20T08:20:28;6.00;99.90
14097;DHT22;7125;48.106;11.544;2022-11-20T08:22:59;6.00;99.90
14097;DHT22;7125;48.106;11.544;2022-11-20T08:25:28;6.10;99.90
14097;DHT22;7125;48.106;11.544;2022-11-20T08:27:57;6.10;99.90
14097;DHT22;7125;48.106;11.544;2022-11-20T08:30:24;6.10;99.90
14097;DHT22;7125;48.106;11.544;2022-11-20T08:32:53;6.20;99.90
14097;DHT22;7125;48.106;11.544;2022-11-20T08:35:20;6.30;99.90
14097;DHT22;7125;48.106;11.544;2022-11-20T08:37:48;6.30;99.90
14097;DHT22;7125;48.106;11.544;2022-11-20T08:40:15;6.40;99.90
14097;DHT22;7125;48.106;11.544;2022-11-20T08:42:47;6.40;99.90
14097;DHT22;7125;48.106;11.544;2022-11-20T08:45:14;6.40;99.90
14097;DHT22;7125;48.106;11.544;2022-11-20T08:47:41;6.60;99.90
14097;DHT22;7125;48.106;11.544;2022-11-20T08:50:10;6.60;99.90
14097;DHT22;7125;48.106;11.544;2022-11-20T08:52:37;6.60;99.90
14097;DHT22;7125;48.106;11.544;2022-11-20T08:55:06;6.70;99.90
14097;DHT22;7125;48.106;11.544;2022-11-20T08:57:35;6.70;99.90
14097;DHT22;7125;48.106;11.544;2022-11-20T09:00:03;6.70;99.90
14097;DHT22;7125;48.106;11.544;2022-11-20T09:02:31;6.70;99.90
14097;DHT22;7125;48.106;11.544;2022-11-20T09:04:58;6.80;99.90
14097;DHT22;7125;48.106;11.544;2022-11-20T09:07:26;6.80;99.90
14097;DHT22;7125;48.106;11.544;2022-11-20T09:09:54;6.80;99.90
14097;DHT22;7125;48.106;11.544;2022-11-20T09:12:22;6.80;99.90
14097;DHT22;7125;48.106;11.544;2022-11-20T09:14:51;6.90;99.90
14097;DHT22;7125;48.106;11.544;2022-11-20T09:17:17;6.80;99.90
14097;DHT22;7125;48.106;11.544;2022-11-20T09:19:46;6.90;99.90
14097;DHT22;7125;48.106;11.544;2022-11-20T09:22:13;6.90;99.90
14097;DHT22;7125;48.106;11.544;2022-11-20T09:24:43;7.00;99.90
14097;DHT22;7125;48.106;11.544;2022-11-20T09:27:10;7.00;99.90
14097;DHT22;7125;48.106;11.544;2022-11-20T09:29:38;7.10;99.90
14097;DHT22;7125;48.106;11.544;2022-11-20T09:32:06;7.20;99.90
14097;DHT22;7125;48.106;11.544;2022-11-20T09:34:34;7.20;99.90
14097;DHT22;7125;48.106;11.544;2022-11-20T09:37:01;7.30;99.90
14097;DHT22;7125;48.106;11.544;2022-11-20T09:39:28;7.30;99.90
14097;DHT22;7125;48.106;11.544;2022-11-20T09:42:32;7.40;99.90
14097;DHT22;7125;48.106;11.544;2022-11-20T09:45:16;7.50;99.90
14097;DHT22;7125;48.106;11.544;2022-11-20T09:47:53;7.50;99.90
14097;DHT22;7125;48.106;11.544;2022-11-20T09:50:30;7.50;99.90
14097;DHT22;7125;48.106;11.544;2022-11-20T09:53:11;7.60;99.90
14097;DHT22;7125;48.106;11.544;2022-11-20T09:55:40;7.60;99.90
14097;DHT22;7125;48.106;11.544;2022-11-20T09:58:16;7.60;99.90
14097;DHT22;7125;48.106;11.544;2022-11-20T10:00:46;7.70;99.90
14097;DHT22;7125;48.106;11.544;2022-11-20T10:03:18;7.90;99.90
14097;DHT22;7125;48.106;11.544;2022-11-20T10:05:53;8.00;99.90
14097;DHT22;7125;48.106;11.544;2022-11-20T10:08:23;8.20;99.90
14097;DHT22;7125;48.106;11.544;2022-11-20T10:10:54;8.40;99.90
14097;DHT22;7125;48.106;11.544;2022-11-20T10:13:37;8.60;99.90
14097;DHT22;7125;48.106;11.544;2022-11-20T10:16:18;8.70;99.90
14097;DHT22;7125;48.106;11.544;2022-11-20T10:18:57;8.80;99.90
14097;DHT22;7125;48.106;11.544;2022-11-20T10:21:30;8.70;99.90
14097;DHT22;7125;48.106;11.544;2022-11-20T10:27:15;8.80;99.90
14097;DHT22;7125;48.106;11.544;2022-11-20T10:29:56;8.80;99.90
14097;DHT22;7125;48.106;11.544;2022-11-20T10:32:31;8.90;99.90
14097;DHT22;7125;48.106;11.544;2022-11-20T10:35:03;9.00;99.90
14097;DHT22;7125;48.106;11.544;2022-11-20T10:37:32;9.10;99.90
14097;DHT22;7125;48.106;11.544;2022-11-20T10:40:14;9.20;99.90
14097;DHT22;7125;48.106;11.544;2022-11-20T10:42:47;9.20;99.90
14097;DHT22;7125;48.106;11.544;2022-11-20T10:45:27;9.20;99.90
14097;DHT22;7125;48.106;11.544;2022-11-20T10:48:09;9.20;99.90
14097;DHT22;7125;48.106;11.544;2022-11-20T10:50:48;9.10;99.90
14097;DHT22;7125;48.106;11.544;2022-11-20T10:53:21;9.00;99.90
14097;DHT22;7125;48.106;11.544;2022-11-20T10:55:58;8.90;99.90
14097;DHT22;7125;48.106;11.544;2022-11-20T10:58:36;8.70;99.90
14097;DHT22;7125;48.106;11.544;2022-11-20T11:01:14;8.70;99.90
14097;DHT22;7125;48.106;11.544;2022-11-20T11:03:42;8.60;99.90
14097;DHT22;7125;48.106;11.544;2022-11-20T11:06:14;8.60;99.90
14097;DHT22;7125;48.106;11.544;2022-11-20T11:08:47;8.60;99.90
14097;DHT22;7125;48.106;11.544;2022-11-20T11:11:21;8.60;99.90
14097;DHT22;7125;48.106;11.544;2022-11-20T11:13:50;8.60;99.90
14097;DHT22;7125;48.106;11.544;2022-11-20T11:16:22;8.60;99.90
14097;DHT22;7125;48.106;11.544;2022-11-20T11:18:49;8.50;99.90
14097;DHT22;7125;48.106;11.544;2022-11-20T11:21:22;8.50;99.90
14097;DHT22;7125;48.106;11.544;2022-11-20T11:23:59;8.50;99.90
14097;DHT22;7125;48.106;11.544;2022-11-20T11:26:27;8.60;99.90
14097;DHT22;7125;48.106;11.544;2022-11-20T11:28:56;8.60;99.90
14097;DHT22;7125;48.106;11.544;2022-11-20T11:31:26;8.60;99.90
14097;DHT22;7125;48.106;11.544;2022-11-20T11:34:04;8.60;99.90
14097;DHT22;7125;48.106;11.544;2022-11-20T11:36:33;8.60;99.90
14097;DHT22;7125;48.106;11.544;2022-11-20T11:39:02;8.50;99.90
14097;DHT22;7125;48.106;11.544;2022-11-20T11:41:32;8.40;99.90
14097;DHT22;7125;48.106;11.544;2022-11-20T11:44:03;8.30;99.90
14097;DHT22;7125;48.106;11.544;2022-11-20T11:46:58;8.40;99.90
14097;DHT22;7125;48.106;11.544;2022-11-20T11:49:26;8.50;99.90
14097;DHT22;7125;48.106;11.544;2022-11-20T11:52:03;8.50;99.90
14097;DHT22;7125;48.106;11.544;2022-11-20T11:54:37;8.60;99.90
14097;DHT22;7125;48.106;11.544;2022-11-20T11:57:10;8.60;99.90
14097;DHT22;7125;48.106;11.544;2022-11-20T11:59:50;8.60;99.90
14097;DHT22;7125;48.106;11.544;2022-11-20T12:02:29;8.70;99.90
14097;DHT22;7125;48.106;11.544;2022-11-20T12:05:02;8.80;99.90
14097;DHT22;7125;48.106;11.544;2022-11-20T12:07:39;8.90;99.90
14097;DHT22;7125;48.106;11.544;2022-11-20T12:10:17;8.90;99.90
14097;DHT22;7125;48.106;11.544;2022-11-20T12:12:50;8.90;99.90
14097;DHT22;7125;48.106;11.544;2022-11-20T12:15:26;8.80;99.90
14097;DHT22;7125;48.106;11.544;2022-11-20T12:17:54;8.60;99.90
14097;DHT22;7125;48.106;11.544;2022-11-20T12:20:24;8.30;99.90
14097;DHT22;7125;48.106;11.544;2022-11-20T12:22:58;8.00;99.90
14097;DHT22;7125;48.106;11.544;2022-11-20T12:25:28;7.80;99.90
14097;DHT22;7125;48.106;11.544;2022-11-20T12:30:53;7.60;99.90
14097;DHT22;7125;48.106;11.544;2022-11-20T12:33:38;7.40;99.90
14097;DHT22;7125;48.106;11.544;2022-11-20T12:36:19;7.40;99.90
14097;DHT22;7125;48.106;11.544;2022-11-20T12:39:00;7.20;99.90
14097;DHT22;7125;48.106;11.544;2022-11-20T12:41:45;7.10;99.90
14097;DHT22;7125;48.106;11.544;2022-11-20T12:44:51;7.10;99.90
14097;DHT22;7125;48.106;11.544;2022-11-20T12:51:11;6.90;99.90
14097;DHT22;7125;48.106;11.544;2022-11-20T12:53:48;6.90;99.90
14097;DHT22;7125;48.106;11.544;2022-11-20T12:56:27;6.90;99.90
14097;DHT22;7125;48.106;11.544;2022-11-20T12:59:10;6.90;99.90
14097;DHT22;7125;48.106;11.544;2022-11-20T13:01:49;6.90;99.90
14097;DHT22;7125;48.106;11.544;2022-11-20T13:04:30;6.90;99.90
14097;DHT22;7125;48.106;11.544;2022-11-20T13:07:02;7.00;99.90
14097;DHT22;7125;48.106;11.544;2022-11-20T13:09:33;6.90;99.90
14097;DHT22;7125;48.106;11.544;2022-11-20T13:12:04;7.00;99.90
14097;DHT22;7125;48.106;11.544;2022-11-20T13:14:37;7.00;99.90
14097;DHT22;7125;48.106;11.544;2022-11-20T13:17:11;7.00;99.90
14097;DHT22;7125;48.106;11.544;2022-11-20T13:19:40;7.00;99.90
14097;DHT22;7125;48.106;11.544;2022-11-20T13:22:09;6.90;99.90
14097;DHT22;7125;48.106;11.544;2022-11-20T13:24:36;6.90;99.90
14097;DHT22;7125;48.106;11.544;2022-11-20T13:27:17;6.70;99.90
14097;DHT22;7125;48.106;11.544;2022-11-20T13:29:46;6.60;99.90
14097;DHT22;7125;48.106;11.544;2022-11-20T13:32:16;6.40;99.90
14097;DHT22;7125;48.106;11.544;2022-11-20T13:34:52;6.30;99.90
14097;DHT22;7125;48.106;11.544;2022-11-20T13:37:30;6.10;99.90
14097;DHT22;7125;48.106;11.544;2022-11-20T13:40:21;6.00;99.90
14097;DHT22;7125;48.106;11.544;2022-11-20T13:42:55;5.90;99.90
14097;DHT22;7125;48.106;11.544;2022-11-20T13:45:25;5.90;99.90
14097;DHT22;7125;48.106;11.544;2022-11-20T13:47:53;5.90;99.90
14097;DHT22;7125;48.106;11.544;2022-11-20T13:50:38;5.90;99.90
14097;DHT22;7125;48.106;11.544;2022-11-20T13:53:19;6.00;99.90
14097;DHT22;7125;48.106;11.544;2022-11-20T13:55:53;6.00;99.90
14097;DHT22;7125;48.106;11.544;2022-11-20T13:58:30;6.00;99.90
14097;DHT22;7125;48.106;11.544;2022-11-20T14:01:08;6.10;99.90
14097;DHT22;7125;48.106;11.544;2022-11-20T14:03:38;6.10;99.90
14097;DHT22;7125;48.106;11.544;2022-11-20T14:06:11;6.10;99.90
14097;DHT22;7125;48.106;11.544;2022-11-20T14:08:44;6.10;99.90
14097;DHT22;7125;48.106;11.544;2022-11-20T14:11:15;6.10;99.90
14097;DHT22;7125;48.106;11.544;2022-11-20T14:14:00;6.10;99.90
14097;DHT22;7125;48.106;11.544;2022-11-20T14:16:29;6.20;99.90
14097;DHT22;7125;48.106;11.544;2022-11-20T14:19:00;6.20;99.90
14097;DHT22;7125;48.106;11.544;2022-11-20T14:21:43;6.30;99.90
14097;DHT22;7125;48.106;11.544;2022-11-20T14:24:14;6.40;99.90
14097;DHT22;7125;48.106;11.544;2022-11-20T14:26:45;6.40;99.90
14097;DHT22;7125;48.106;11.544;2022-11-20T14:29:13;6.40;99.90
14097;DHT22;7125;48.106;11.544;2022-11-20T14:31:42;6.40;99.90
14097;DHT22;7125;48.106;11.544;2022-11-20T14:34:13;6.40;99.90
14097;DHT22;7125;48.106;11.544;2022-11-20T14:36:47;6.40;99.90
14097;DHT22;7125;48.106;11.544;2022-11-20T14:39:21;6.50;99.90
14097;DHT22;7125;48.106;11.544;2022-11-20T14:41:51;6.50;99.90
14097;DHT22;7125;48.106;11.544;2022-11-20T14:44:20;6.50;99.90
14097;DHT22;7125;48.106;11.544;2022-11-20T14:46:48;6.50;99.90
14097;DHT22;7125;48.106;11.544;2022-11-20T14:49:17;6.50;99.90
14097;DHT22;7125;48.106;11.544;2022-11-20T14:51:44;6.50;99.90
14097;DHT22;7125;48.106;11.544;2022-11-20T14:54:14;6.50;99.90
14097;DHT22;7125;48.106;11.544;2022-11-20T14:56:53;6.50;99.90
14097;DHT22;7125;48.106;11.544;2022-11-20T14:59:23;6.50;99.90
14097;DHT22;7125;48.106;11.544;2022-11-20T15:01:56;6.50;99.90
14097;DHT22;7125;48.106;11.544;2022-11-20T15:04:23;6.40;99.90
14097;DHT22;7125;48.106;11.544;2022-11-20T15:06:51;6.40;99.90
14097;DHT22;7125;48.106;11.544;2022-11-20T15:09:20;6.30;99.90
14097;DHT22;7125;48.106;11.544;2022-11-20T15:11:55;6.30;99.90
14097;DHT22;7125;48.106;11.544;2022-11-20T15:14:23;6.30;99.90
14097;DHT22;7125;48.106;11.544;2022-11-20T15:16:52;6.20;99.90
14097;DHT22;7125;48.106;11.544;2022-11-20T15:19:20;6.20;99.90
14097;DHT22;7125;48.106;11.544;2022-11-20T15:21:48;6.20;99.90
14097;DHT22;7125;48.106;11.544;2022-11-20T15:24:16;6.20;99.90
14097;DHT22;7125;48.106;11.544;2022-11-20T15:26:43;6.20;99.90
14097;DHT22;7125;48.106;11.544;2022-11-20T15:29:14;6.30;99.90
14097;DHT22;7125;48.106;11.544;2022-11-20T15:31:44;6.20;99.90
14097;DHT22;7125;48.106;11.544;2022-11-20T15:34:13;6.10;99.90
14097;DHT22;7125;48.106;11.544;2022-11-20T15:36:42;6.10;99.90
14097;DHT22;7125;48.106;11.544;2022-11-20T15:39:09;6.10;99.90
14097;DHT22;7125;48.106;11.544;2022-11-20T15:41:37;6.00;99.90
14097;DHT22;7125;48.106;11.544;2022-11-20T15:44:04;6.00;99.90
14097;DHT22;7125;48.106;11.544;2022-11-20T15:46:36;5.90;99.90
14097;DHT22;7125;48.106;11.544;2022-11-20T15:49:06;5.80;99.90
14097;DHT22;7125;48.106;11.544;2022-11-20T15:51:38;5.80;99.90
14097;DHT22;7125;48.106;11.544;2022-11-20T15:54:10;5.70;99.90
14097;DHT22;7125;48.106;11.544;2022-11-20T15:56:37;5.60;99.90
14097;DHT22;7125;48.106;11.544;2022-11-20T15:59:04;5.50;99.90
14097;DHT22;7125;48.106;11.544;2022-11-20T16:01:34;5.50;99.90
14097;DHT22;7125;48.106;11.544;2022-11-20T16:04:01;5.40;99.90
14097;DHT22;7125;48.106;11.544;2022-11-20T16:06:28;5.30;99.90
14097;DHT22;7125;48.106;11.544;2022-11-20T16:08:55;5.30;99.90
14097;DHT22;7125;48.106;11.544;2022-11-20T16:11:22;5.20;99.90
14097;DHT22;7125;48.106;11.544;2022-11-20T16:13:49;5.20;99.90
14097;DHT22;7125;48.106;11.544;2022-11-20T16:16:35;5.10;99.90